New Harbor, ME

43° 52' 34"N, 69° 29' 40"W, Elevation 65 ft.
Eastern Time

Hourly observations for the last 72 hours

Date Time Temperature (°F) Humi-
dity

(%)
Wind
(mph)
Pressure Rain (in) Sun
(W/m2)
ET
(in)
Air Dew 6 Hour 1 Hr 3 Hr 6 Hr Day
Alt
(in)
Sea
Level

(mb)
Max Min
17 19:00 72.8 59.5 63 Calm 29.91 1012.8 0.00 32 0.162
17 18:00 76.5 58.6 54 W 1 G 5 29.90 1012.5 0.00 116 0.157
17 17:00 82.3 53.5 37 WSW 4 G 11 29.88 1012.0 0.00 127 0.144
17 16:00 84.4 53.8 35 W 4 G 8 29.88 1012.0 0.00 571 0.125
17 15:00 81.4 55.5 41 NW 2 G 6 29.89 1012.2 0.00 694 0.106
17 14:00 81.4 54.1 81.4 60.2 39 WNW 5 G 12 29.90 1012.7 0.00 786 0.084
17 13:00 78.5 53.5 42 NW 4 G 18 29.92 1013.1 0.00 364 0.062
17 12:00 78.4 53.4 42 S 3 G 12 29.93 1013.6 0.00 823 0.041
17 11:00 75.3 53.1 46 WNW 6 G 14 29.94 1014.1 0.00 682 0.026
17 10:00 72.9 54.3 52 SW 4 G 12 29.97 1014.9 0.00 513 0.014
17 09:00 68.4 53.5 59 WSW 3 G 8 29.97 1015.0 0.00 371 0.007
17 08:00 60.2 52.3 60.2 51.8 75 W 0 G 3 29.98 1015.1 0.00 116 0.005
17 07:00 54.2 50.7 88 Calm 29.96 1014.7 0.00 47 0.004
17 06:00 51.8 48.4 88 W 1 G 3 29.95 1014.2 0.00 5 0.004
17 05:00 52.7 48.3 85 W 0 G 3 29.95 1014.2 0.00 0 0.004
17 04:00 54.9 49.2 81 Calm 29.94 1014.1 0.00 0 0.003
17 03:00 55.1 48.7 79 NNW 1 G 3 29.94 1014.0 0.00 0 0.002
17 02:00 54.1 48.4 69.0 54.1 81 NW 0 G 3 29.94 1013.9 0.00 0 0.001
17 01:00 55.7 48.6 77 NW 0 G 3 29.94 1014.0 0.00 0 0.000
17 00:00 57.8 48.1 70 NW 1 G 5 29.94 1014.1 0.00 0 0.184
16 23:00 62.3 47.8 59 W 0 G 2 29.95 1014.3 0.00 0 0.182
16 22:00 64.8 46.8 52 NE 0 G 5 29.94 1014.1 0.00 0 0.180
16 21:00 67.0 45.6 46 NNW 2 G 8 29.93 1013.4 0.00 0 0.177
16 20:00 69.0 46.2 83.1 68.9 44 NW 1 G 4 29.90 1012.4 0.00 0 0.175
16 19:00 72.6 46.3 39 WNW 3 G 12 29.88 1011.8 0.00 23 0.172
16 18:00 76.0 46.4 35 N 2 G 10 29.85 1011.0 0.00 56 0.163
16 17:00 81.7 48.2 31 N 2 G 11 29.84 1010.7 0.00 445 0.146
16 16:00 83.0 49.3 31 SW 3 G 16 29.85 1010.8 0.00 615 0.125
16 15:00 82.0 50.1 33 WNW 7 G 13 29.85 1010.9 0.00 752 0.103
16 14:00 82.0 54.6 83.5 66.3 39 W 6 G 13 29.85 1010.8 0.00 772 0.080
16 13:00 83.0 60.1 46 N 3 G 15 29.84 1010.5 0.00 937 0.057
16 12:00 81.1 62.4 53 NW 7 G 10 29.85 1010.8 0.00 900 0.040
16 11:00 80.5 62.3 54 NW 7 G 16 29.85 1011.0 0.00 694 0.024
16 10:00 78.4 63.9 61 NW 5 G 14 29.84 1010.6 0.00 571 0.010
16 09:00 74.5 64.5 71 NW 3 G 12 29.85 1010.8 0.00 452 0.002
16 08:00 66.4 64.3 66.4 62.1 93 NW 4 G 9 29.84 1010.7 0.00 190 0.001
16 07:00 63.8 63.2 98 NNW 0 G 5 29.83 1010.2 0.00 40 0.000
16 06:00 62.2 61.6 98 Calm 29.81 1009.6 0.00 7 0.000
16 05:00 63.0 62.4 98 WNW 0 G 3 29.80 1009.3 0.00 0 0.000
16 04:00 63.0 61.8 96 WNW 0 G 2 29.78 1008.6 0.00 0 0.000
16 03:00 63.7 62.2 95 W 0 G 3 29.78 1008.7 0.00 0 0.000
16 02:00 64.5 63.0 69.3 64.5 95 W 2 G 6 29.78 1008.4 0.00 0 0.000
16 01:00 65.0 62.9 93 WSW 3 G 9 29.79 1008.8 0.00 0 0.000
16 00:00 65.1 63.0 93 S 1 G 6 29.80 1009.2 0.00 0 0.063
15 23:00 65.6 63.2 92 S 2 G 5 29.81 1009.5 0.00 0 0.063
15 22:00 66.5 64.1 92 SSW 3 G 8 29.81 1009.5 0.00 0 0.063
15 21:00 68.1 66.0 93 S 5 G 13 29.82 1009.7 0.00 0 0.062
15 20:00 69.2 66.1 74.0 68.7 90 S 6 G 17 29.81 1009.4 0.00 0 0.061
15 19:00 69.4 66.7 91 S 5 G 15 29.82 1010.0 0.00 12 0.060
15 18:00 68.8 67.0 94 S 5 G 10 29.82 1010.0 0.00 35 0.058
15 17:00 69.2 66.8 92 SSE 4 G 9 29.83 1010.1 0.00 132 0.055
15 16:00 70.3 66.9 89 SSE 3 G 9 29.85 1010.9 0.00 120 0.051
15 15:00 73.8 68.7 84 S 2 G 6 29.86 1011.3 0.00 246 0.043
15 14:00 72.4 67.6 74.0 66.1 85 SSE 3 G 6 29.87 1011.4 0.00 306 0.035
15 13:00 74.0 68.2 82 SE 0 G 6 29.87 1011.5 0.00 360 0.024
15 12:00 72.9 68.1 85 S 1 G 6 29.89 1012.1 0.00 295 0.015
15 11:00 70.3 66.9 89 SSE 0 G 4 29.90 1012.4 0.00 229 0.009
15 10:00 68.5 67.6 97 SSE 4 G 6 29.90 1012.5 0.00 253 0.005
15 09:00 66.5 65.9 98 Calm 29.90 1012.7 0.00 139 0.003
15 08:00 66.4 65.8 66.4 63.6 98 Calm 29.90 1012.6 0.00 77 0.001
15 07:00 64.8 64.2 98 Calm 29.91 1012.8 0.00 47 0.000
15 06:00 64.7 64.1 98 Calm 29.92 1013.1 0.00 0 0.000
15 05:00 64.6 64.0 98 Calm 29.91 1012.9 0.00 0 0.000
15 04:00 64.5 63.6 97 Calm 29.91 1012.8 0.00 0 0.000
15 03:00 63.7 62.8 97 Calm 29.91 1013.0 0.00 0 0.000
15 02:00 64.6 63.7 68.6 64.1 97 Calm 29.92 1013.1 0.00 0 0.000
15 01:00 65.4 64.2 96 SSE 0 G 2 29.92 1013.4 0.00 0 0.000
15 00:00 64.4 63.2 96 Calm 29.93 1013.6 0.00 0 0.139
14 23:00 65.2 63.1 93 WSW 1 G 4 29.94 1014.0 0.00 0 0.139
14 22:00 66.6 63.6 90 S 4 G 10 29.95 1014.2 0.00 0 0.138
14 21:00 66.6 62.6 87 S 1 G 4 29.94 1014.0 0.00 0 0.137
14 20:00 68.6 62.2 83.4 68.6 80 SSW 1 G 7 29.93 1013.7 0.00 0 0.136

Data generated by WxSolution Version 1.9.0.6, Build 2017.01.14.